sensor_id;sensor_type;location;lat;lon;timestamp;pressure;altitude;pressure_sealevel;temperature;humidity
44751;BME280;30477;48.224;11.470;2023-05-29T00:02:11;96016.66;;;14.47;54.35
44751;BME280;30477;48.224;11.470;2023-05-29T00:04:36;96012.94;;;14.49;54.09
44751;BME280;30477;48.224;11.470;2023-05-29T00:07:02;96020.41;;;14.52;53.88
44751;BME280;30477;48.224;11.470;2023-05-29T00:09:28;96018.28;;;14.48;54.36
44751;BME280;30477;48.224;11.470;2023-05-29T00:11:53;96021.84;;;14.47;54.18
44751;BME280;30477;48.224;11.470;2023-05-29T00:14:19;96022.19;;;14.52;54.26
44751;BME280;30477;48.224;11.470;2023-05-29T00:16:46;96022.34;;;14.50;54.26
44751;BME280;30477;48.224;11.470;2023-05-29T00:19:12;96015.53;;;14.33;54.27
44751;BME280;30477;48.224;11.470;2023-05-29T00:21:38;96018.31;;;14.31;54.39
44751;BME280;30477;48.224;11.470;2023-05-29T00:24:05;96019.47;;;14.20;54.51
44751;BME280;30477;48.224;11.470;2023-05-29T00:26:30;96007.75;;;14.16;54.82
44751;BME280;30477;48.224;11.470;2023-05-29T00:28:56;96012.31;;;14.14;54.99
44751;BME280;30477;48.224;11.470;2023-05-29T00:31:21;96018.50;;;14.05;54.92
44751;BME280;30477;48.224;11.470;2023-05-29T00:33:46;96012.44;;;14.05;55.18
44751;BME280;30477;48.224;11.470;2023-05-29T00:36:12;96007.59;;;14.18;55.28
44751;BME280;30477;48.224;11.470;2023-05-29T00:38:37;96020.75;;;14.25;55.44
44751;BME280;30477;48.224;11.470;2023-05-29T00:41:02;96009.84;;;14.29;55.05
44751;BME280;30477;48.224;11.470;2023-05-29T00:43:27;96013.59;;;14.18;55.17
44751;BME280;30477;48.224;11.470;2023-05-29T00:45:53;96006.44;;;14.04;55.45
44751;BME280;30477;48.224;11.470;2023-05-29T00:48:18;96008.72;;;14.07;56.17
44751;BME280;30477;48.224;11.470;2023-05-29T00:50:44;96009.03;;;14.12;55.88
44751;BME280;30477;48.224;11.470;2023-05-29T00:53:10;96014.91;;;14.23;55.71
44751;BME280;30477;48.224;11.470;2023-05-29T00:55:36;96009.34;;;14.26;55.72
44751;BME280;30477;48.224;11.470;2023-05-29T00:58:01;96017.16;;;14.26;55.81
44751;BME280;30477;48.224;11.470;2023-05-29T01:00:27;96017.81;;;14.28;55.98
44751;BME280;30477;48.224;11.470;2023-05-29T01:02:53;96011.81;;;14.27;56.24
44751;BME280;30477;48.224;11.470;2023-05-29T01:05:21;96017.19;;;14.17;56.40
44751;BME280;30477;48.224;11.470;2023-05-29T01:07:47;96014.41;;;14.02;56.55
44751;BME280;30477;48.224;11.470;2023-05-29T01:10:14;96015.88;;;13.89;56.24
44751;BME280;30477;48.224;11.470;2023-05-29T01:18:41;96017.94;;;13.52;57.48
44751;BME280;30477;48.224;11.470;2023-05-29T01:21:57;96019.09;;;13.66;57.49
44751;BME280;30477;48.224;11.470;2023-05-29T01:27:07;96024.00;;;13.69;57.26
44751;BME280;30477;48.224;11.470;2023-05-29T01:29:34;96021.53;;;13.68;57.71
44751;BME280;30477;48.224;11.470;2023-05-29T01:32:01;96021.06;;;13.80;57.45
44751;BME280;30477;48.224;11.470;2023-05-29T01:34:27;96019.94;;;13.83;57.28
44751;BME280;30477;48.224;11.470;2023-05-29T01:36:53;96021.41;;;13.77;57.25
44751;BME280;30477;48.224;11.470;2023-05-29T01:39:19;96020.56;;;13.77;57.47
44751;BME280;30477;48.224;11.470;2023-05-29T01:41:46;96021.03;;;13.64;57.50
44751;BME280;30477;48.224;11.470;2023-05-29T01:44:11;96023.34;;;13.67;57.73
44751;BME280;30477;48.224;11.470;2023-05-29T01:46:39;96024.94;;;13.68;57.28
44751;BME280;30477;48.224;11.470;2023-05-29T01:49:05;96022.03;;;13.71;57.38
44751;BME280;30477;48.224;11.470;2023-05-29T01:51:30;96025.94;;;13.67;57.53
44751;BME280;30477;48.224;11.470;2023-05-29T01:53:57;96022.69;;;13.65;57.30
44751;BME280;30477;48.224;11.470;2023-05-29T01:56:23;96019.41;;;13.55;57.50
44751;BME280;30477;48.224;11.470;2023-05-29T01:58:49;96020.69;;;13.43;57.74
44751;BME280;30477;48.224;11.470;2023-05-29T02:01:15;96029.03;;;13.20;57.78
44751;BME280;30477;48.224;11.470;2023-05-29T02:03:41;96031.31;;;12.89;58.45
44751;BME280;30477;48.224;11.470;2023-05-29T02:06:06;96028.47;;;12.74;58.77
44751;BME280;30477;48.224;11.470;2023-05-29T02:08:32;96032.53;;;12.68;59.30
44751;BME280;30477;48.224;11.470;2023-05-29T02:10:57;96031.88;;;12.66;59.70
44751;BME280;30477;48.224;11.470;2023-05-29T02:13:22;96034.00;;;12.71;59.91
44751;BME280;30477;48.224;11.470;2023-05-29T02:15:48;96029.81;;;12.78;60.06
44751;BME280;30477;48.224;11.470;2023-05-29T02:18:14;96028.56;;;12.90;59.65
44751;BME280;30477;48.224;11.470;2023-05-29T02:20:40;96022.91;;;12.95;59.70
44751;BME280;30477;48.224;11.470;2023-05-29T02:23:09;96025.00;;;12.91;59.73
44751;BME280;30477;48.224;11.470;2023-05-29T02:25:35;96019.19;;;12.97;60.02
44751;BME280;30477;48.224;11.470;2023-05-29T02:28:01;96010.09;;;13.02;59.57
44751;BME280;30477;48.224;11.470;2023-05-29T02:30:27;96016.94;;;13.03;59.58
44751;BME280;30477;48.224;11.470;2023-05-29T02:32:53;96015.00;;;13.05;59.56
44751;BME280;30477;48.224;11.470;2023-05-29T02:35:18;96017.91;;;13.02;60.04
44751;BME280;30477;48.224;11.470;2023-05-29T02:37:46;96016.63;;;13.06;59.51
44751;BME280;30477;48.224;11.470;2023-05-29T02:40:11;96022.78;;;13.05;59.38
44751;BME280;30477;48.224;11.470;2023-05-29T02:42:37;96015.97;;;13.04;59.37
44751;BME280;30477;48.224;11.470;2023-05-29T02:45:03;96016.63;;;13.06;59.35
44751;BME280;30477;48.224;11.470;2023-05-29T02:47:29;96015.81;;;13.05;59.57
44751;BME280;30477;48.224;11.470;2023-05-29T02:49:54;96013.69;;;13.00;59.20
44751;BME280;30477;48.224;11.470;2023-05-29T02:52:19;96012.66;;;12.93;59.52
44751;BME280;30477;48.224;11.470;2023-05-29T02:54:45;96021.06;;;12.79;59.44
44751;BME280;30477;48.224;11.470;2023-05-29T02:57:11;96018.00;;;12.57;59.58
44751;BME280;30477;48.224;11.470;2023-05-29T02:59:36;96017.28;;;12.21;59.99
44751;BME280;30477;48.224;11.470;2023-05-29T03:02:02;96028.13;;;11.98;60.60
44751;BME280;30477;48.224;11.470;2023-05-29T03:04:27;96025.69;;;11.97;60.99
44751;BME280;30477;48.224;11.470;2023-05-29T03:06:53;96027.19;;;12.00;61.77
44751;BME280;30477;48.224;11.470;2023-05-29T03:09:19;96022.88;;;12.08;61.68
44751;BME280;30477;48.224;11.470;2023-05-29T03:11:44;96027.47;;;12.14;61.66
44751;BME280;30477;48.224;11.470;2023-05-29T03:14:10;96027.19;;;12.26;61.85
44751;BME280;30477;48.224;11.470;2023-05-29T03:16:35;96024.72;;;12.42;61.56
44751;BME280;30477;48.224;11.470;2023-05-29T03:19:03;96029.31;;;12.48;61.35
44751;BME280;30477;48.224;11.470;2023-05-29T03:21:28;96029.50;;;12.55;61.14
44751;BME280;30477;48.224;11.470;2023-05-29T03:23:53;96026.56;;;12.50;61.21
44751;BME280;30477;48.224;11.470;2023-05-29T03:26:19;96024.94;;;12.49;60.96
44751;BME280;30477;48.224;11.470;2023-05-29T03:28:44;96027.66;;;12.47;61.23
44751;BME280;30477;48.224;11.470;2023-05-29T03:31:10;96034.91;;;12.35;60.92
44751;BME280;30477;48.224;11.470;2023-05-29T03:33:35;96033.66;;;12.22;61.21
44751;BME280;30477;48.224;11.470;2023-05-29T03:36:01;96031.31;;;12.10;62.08
44751;BME280;30477;48.224;11.470;2023-05-29T03:38:26;96034.66;;;12.03;61.83
44751;BME280;30477;48.224;11.470;2023-05-29T03:40:51;96038.69;;;11.97;62.24
44751;BME280;30477;48.224;11.470;2023-05-29T03:43:17;96034.81;;;12.01;62.78
44751;BME280;30477;48.224;11.470;2023-05-29T03:45:42;96039.75;;;11.94;62.25
44751;BME280;30477;48.224;11.470;2023-05-29T03:48:07;96033.63;;;11.95;63.15
44751;BME280;30477;48.224;11.470;2023-05-29T03:50:33;96033.09;;;11.92;62.88
44751;BME280;30477;48.224;11.470;2023-05-29T03:52:58;96040.97;;;12.00;63.48
44751;BME280;30477;48.224;11.470;2023-05-29T03:55:25;96040.34;;;12.06;63.36
44751;BME280;30477;48.224;11.470;2023-05-29T03:57:51;96041.38;;;12.13;63.43
44751;BME280;30477;48.224;11.470;2023-05-29T04:00:16;96043.22;;;12.21;63.17
44751;BME280;30477;48.224;11.470;2023-05-29T04:02:41;96044.16;;;12.38;63.06
44751;BME280;30477;48.224;11.470;2023-05-29T04:05:07;96046.50;;;12.49;62.86
44751;BME280;30477;48.224;11.470;2023-05-29T04:07:36;96050.19;;;12.65;62.56
44751;BME280;30477;48.224;11.470;2023-05-29T04:10:05;96047.03;;;12.79;62.00
44751;BME280;30477;48.224;11.470;2023-05-29T04:12:32;96053.38;;;12.85;61.52
44751;BME280;30477;48.224;11.470;2023-05-29T04:15:03;96059.66;;;13.00;61.47
44751;BME280;30477;48.224;11.470;2023-05-29T04:17:32;96055.16;;;13.18;60.81
44751;BME280;30477;48.224;11.470;2023-05-29T04:19:57;96057.63;;;13.28;60.36
44751;BME280;30477;48.224;11.470;2023-05-29T04:22:23;96065.66;;;13.35;59.79
44751;BME280;30477;48.224;11.470;2023-05-29T04:24:48;96066.38;;;13.53;59.82
44751;BME280;30477;48.224;11.470;2023-05-29T04:27:14;96068.06;;;13.87;59.09
44751;BME280;30477;48.224;11.470;2023-05-29T04:29:41;96065.00;;;14.25;58.33
44751;BME280;30477;48.224;11.470;2023-05-29T04:32:08;96069.25;;;14.58;57.63
44751;BME280;30477;48.224;11.470;2023-05-29T04:34:38;96071.28;;;15.04;56.58
44751;BME280;30477;48.224;11.470;2023-05-29T04:37:04;96070.75;;;15.17;55.63
44751;BME280;30477;48.224;11.470;2023-05-29T04:39:30;96072.13;;;15.44;54.48
44751;BME280;30477;48.224;11.470;2023-05-29T04:41:56;96070.72;;;15.73;53.97
44751;BME280;30477;48.224;11.470;2023-05-29T04:44:24;96065.50;;;15.96;53.49
44751;BME280;30477;48.224;11.470;2023-05-29T04:46:51;96075.59;;;15.99;52.71
44751;BME280;30477;48.224;11.470;2023-05-29T04:49:17;96078.47;;;16.27;52.84
44751;BME280;30477;48.224;11.470;2023-05-29T04:51:43;96074.94;;;16.43;52.02
44751;BME280;30477;48.224;11.470;2023-05-29T04:54:10;96078.69;;;16.63;51.71
44751;BME280;30477;48.224;11.470;2023-05-29T04:56:36;96072.59;;;16.86;51.25
44751;BME280;30477;48.224;11.470;2023-05-29T04:59:02;96074.25;;;17.17;50.03
44751;BME280;30477;48.224;11.470;2023-05-29T05:01:27;96084.69;;;17.32;50.11
44751;BME280;30477;48.224;11.470;2023-05-29T05:03:54;96073.44;;;17.82;49.58
44751;BME280;30477;48.224;11.470;2023-05-29T05:06:22;96079.25;;;18.14;49.08
44751;BME280;30477;48.224;11.470;2023-05-29T05:08:48;96070.94;;;18.60;48.00
44751;BME280;30477;48.224;11.470;2023-05-29T05:11:14;96073.69;;;18.74;47.67
44751;BME280;30477;48.224;11.470;2023-05-29T05:13:39;96072.16;;;19.14;46.59
44751;BME280;30477;48.224;11.470;2023-05-29T05:16:05;96067.78;;;19.28;45.60
44751;BME280;30477;48.224;11.470;2023-05-29T05:18:30;96067.88;;;19.55;45.19
44751;BME280;30477;48.224;11.470;2023-05-29T05:20:56;96075.09;;;19.74;44.17
44751;BME280;30477;48.224;11.470;2023-05-29T05:23:21;96074.50;;;19.85;43.97
44751;BME280;30477;48.224;11.470;2023-05-29T05:25:46;96077.22;;;20.39;43.37
44751;BME280;30477;48.224;11.470;2023-05-29T05:28:12;96078.69;;;20.81;42.78
44751;BME280;30477;48.224;11.470;2023-05-29T05:30:38;96084.75;;;20.82;42.00
44751;BME280;30477;48.224;11.470;2023-05-29T05:33:03;96079.44;;;21.15;41.81
44751;BME280;30477;48.224;11.470;2023-05-29T05:35:29;96078.16;;;21.38;40.78
44751;BME280;30477;48.224;11.470;2023-05-29T05:37:54;96086.00;;;21.58;40.87
44751;BME280;30477;48.224;11.470;2023-05-29T05:40:23;96075.69;;;22.01;39.36
44751;BME280;30477;48.224;11.470;2023-05-29T05:42:48;96084.28;;;22.22;38.86
44751;BME280;30477;48.224;11.470;2023-05-29T05:45:13;96076.47;;;22.02;38.09
44751;BME280;30477;48.224;11.470;2023-05-29T05:47:39;96083.81;;;21.55;38.63
44751;BME280;30477;48.224;11.470;2023-05-29T05:50:04;96083.81;;;21.55;38.79
44751;BME280;30477;48.224;11.470;2023-05-29T05:52:30;96090.94;;;21.93;38.36
44751;BME280;30477;48.224;11.470;2023-05-29T05:54:57;96092.13;;;21.90;37.49
44751;BME280;30477;48.224;11.470;2023-05-29T05:57:23;96092.53;;;21.94;37.64
44751;BME280;30477;48.224;11.470;2023-05-29T05:59:48;96094.59;;;21.85;37.52
44751;BME280;30477;48.224;11.470;2023-05-29T06:02:13;96094.31;;;22.70;37.62
44751;BME280;30477;48.224;11.470;2023-05-29T06:04:39;96091.00;;;23.25;36.79
44751;BME280;30477;48.224;11.470;2023-05-29T06:07:05;96095.56;;;22.86;36.19
44751;BME280;30477;48.224;11.470;2023-05-29T06:09:31;96093.97;;;22.85;36.63
44751;BME280;30477;48.224;11.470;2023-05-29T06:11:56;96096.91;;;23.02;36.96
44751;BME280;30477;48.224;11.470;2023-05-29T06:14:24;96097.34;;;23.17;36.33
44751;BME280;30477;48.224;11.470;2023-05-29T06:16:49;96089.81;;;23.76;36.43
44751;BME280;30477;48.224;11.470;2023-05-29T06:19:15;96102.94;;;24.43;35.83
44751;BME280;30477;48.224;11.470;2023-05-29T06:21:41;96096.09;;;24.24;34.46
44751;BME280;30477;48.224;11.470;2023-05-29T06:24:06;96094.28;;;23.94;35.06
44751;BME280;30477;48.224;11.470;2023-05-29T06:26:31;96094.56;;;24.04;34.82
44751;BME280;30477;48.224;11.470;2023-05-29T06:28:57;96095.09;;;24.79;35.34
44751;BME280;30477;48.224;11.470;2023-05-29T06:31:22;96100.88;;;25.23;34.05
44751;BME280;30477;48.224;11.470;2023-05-29T06:33:48;96098.75;;;24.78;33.42
44751;BME280;30477;48.224;11.470;2023-05-29T06:36:13;96104.75;;;24.85;33.36
44751;BME280;30477;48.224;11.470;2023-05-29T06:38:38;96102.34;;;24.71;33.16
44751;BME280;30477;48.224;11.470;2023-05-29T06:41:04;96104.84;;;24.66;33.66
44751;BME280;30477;48.224;11.470;2023-05-29T06:43:29;96102.56;;;25.17;33.23
44751;BME280;30477;48.224;11.470;2023-05-29T06:45:55;96103.25;;;25.12;33.47
44751;BME280;30477;48.224;11.470;2023-05-29T06:48:20;96108.91;;;25.28;33.14
44751;BME280;30477;48.224;11.470;2023-05-29T06:50:47;96105.06;;;25.71;33.04
44751;BME280;30477;48.224;11.470;2023-05-29T06:53:13;96105.41;;;25.63;32.47
44751;BME280;30477;48.224;11.470;2023-05-29T06:55:39;96099.97;;;26.10;32.26
44751;BME280;30477;48.224;11.470;2023-05-29T06:58:07;96109.91;;;26.15;32.06
44751;BME280;30477;48.224;11.470;2023-05-29T07:00:32;96114.56;;;26.24;31.90
44751;BME280;30477;48.224;11.470;2023-05-29T07:02:58;96115.22;;;26.15;31.88
44751;BME280;30477;48.224;11.470;2023-05-29T07:05:23;96109.69;;;26.50;31.98
44751;BME280;30477;48.224;11.470;2023-05-29T07:07:48;96116.34;;;26.19;31.58
44751;BME280;30477;48.224;11.470;2023-05-29T07:10:14;96118.84;;;25.33;32.02
44751;BME280;30477;48.224;11.470;2023-05-29T07:12:39;96118.59;;;25.58;32.78
44751;BME280;30477;48.224;11.470;2023-05-29T07:15:05;96123.28;;;26.08;32.32
44751;BME280;30477;48.224;11.470;2023-05-29T07:17:30;96124.41;;;25.83;31.65
44751;BME280;30477;48.224;11.470;2023-05-29T07:19:56;96122.56;;;25.96;31.53
44751;BME280;30477;48.224;11.470;2023-05-29T07:22:21;96131.34;;;26.42;32.05
44751;BME280;30477;48.224;11.470;2023-05-29T07:24:46;96130.53;;;26.87;31.42
44751;BME280;30477;48.224;11.470;2023-05-29T07:27:12;96137.50;;;26.30;31.67
44751;BME280;30477;48.224;11.470;2023-05-29T07:29:37;96138.22;;;25.85;31.11
44751;BME280;30477;48.224;11.470;2023-05-29T07:32:03;96133.53;;;25.64;32.52
44751;BME280;30477;48.224;11.470;2023-05-29T07:34:28;96142.03;;;26.47;30.92
44751;BME280;30477;48.224;11.470;2023-05-29T07:37:05;96134.25;;;26.40;31.62
44751;BME280;30477;48.224;11.470;2023-05-29T07:39:31;96135.25;;;25.94;31.03
44751;BME280;30477;48.224;11.470;2023-05-29T07:41:56;96135.53;;;25.33;31.32
44751;BME280;30477;48.224;11.470;2023-05-29T07:44:22;96135.59;;;25.62;32.34
44751;BME280;30477;48.224;11.470;2023-05-29T07:46:47;96130.63;;;26.18;31.12
44751;BME280;30477;48.224;11.470;2023-05-29T07:49:13;96130.28;;;26.14;31.14
44751;BME280;30477;48.224;11.470;2023-05-29T07:51:38;96131.56;;;27.03;31.12
44751;BME280;30477;48.224;11.470;2023-05-29T07:54:05;96130.06;;;26.90;29.69
44751;BME280;30477;48.224;11.470;2023-05-29T07:56:30;96138.41;;;26.36;31.22
44751;BME280;30477;48.224;11.470;2023-05-29T07:58:56;96129.72;;;26.69;31.34
44751;BME280;30477;48.224;11.470;2023-05-29T08:01:22;96135.28;;;27.80;30.81
44751;BME280;30477;48.224;11.470;2023-05-29T08:03:47;96134.22;;;27.59;30.06
44751;BME280;30477;48.224;11.470;2023-05-29T08:06:13;96123.22;;;27.28;30.52
44751;BME280;30477;48.224;11.470;2023-05-29T08:08:39;96131.19;;;27.28;29.53
44751;BME280;30477;48.224;11.470;2023-05-29T08:11:04;96139.06;;;27.23;29.49
44751;BME280;30477;48.224;11.470;2023-05-29T08:13:30;96133.69;;;26.84;29.87
44751;BME280;30477;48.224;11.470;2023-05-29T08:15:55;96131.63;;;26.28;30.39
44751;BME280;30477;48.224;11.470;2023-05-29T08:18:25;96127.69;;;26.93;31.03
44751;BME280;30477;48.224;11.470;2023-05-29T08:20:50;96133.16;;;27.21;31.60
44751;BME280;30477;48.224;11.470;2023-05-29T08:23:16;96131.44;;;27.48;30.14
44751;BME280;30477;48.224;11.470;2023-05-29T08:25:41;96131.44;;;26.47;30.67
44751;BME280;30477;48.224;11.470;2023-05-29T08:28:07;96128.03;;;26.35;30.48
44751;BME280;30477;48.224;11.470;2023-05-29T08:30:32;96132.94;;;25.62;31.21
44751;BME280;30477;48.224;11.470;2023-05-29T08:32:58;96140.31;;;25.83;31.79
44751;BME280;30477;48.224;11.470;2023-05-29T08:35:23;96133.72;;;25.98;31.39
44751;BME280;30477;48.224;11.470;2023-05-29T08:37:48;96135.09;;;26.75;31.28
44751;BME280;30477;48.224;11.470;2023-05-29T08:40:14;96133.38;;;25.94;32.14
44751;BME280;30477;48.224;11.470;2023-05-29T08:42:45;96141.34;;;25.94;32.07
44751;BME280;30477;48.224;11.470;2023-05-29T08:45:13;96135.41;;;26.32;32.75
44751;BME280;30477;48.224;11.470;2023-05-29T08:47:40;96142.09;;;26.35;31.54
44751;BME280;30477;48.224;11.470;2023-05-29T08:50:06;96127.69;;;26.77;31.33
44751;BME280;30477;48.224;11.470;2023-05-29T08:52:34;96131.41;;;26.59;31.32
44751;BME280;30477;48.224;11.470;2023-05-29T08:55:01;96127.69;;;27.10;31.35
44751;BME280;30477;48.224;11.470;2023-05-29T08:57:28;96130.25;;;27.39;30.96
44751;BME280;30477;48.224;11.470;2023-05-29T08:59:55;96133.13;;;26.53;31.13
44751;BME280;30477;48.224;11.470;2023-05-29T09:02:21;96138.59;;;25.65;32.01
44751;BME280;30477;48.224;11.470;2023-05-29T09:04:47;96133.66;;;26.38;31.99
44751;BME280;30477;48.224;11.470;2023-05-29T09:07:18;96140.72;;;26.61;31.35
44751;BME280;30477;48.224;11.470;2023-05-29T09:09:47;96142.72;;;25.97;31.34
44751;BME280;30477;48.224;11.470;2023-05-29T09:12:14;96142.78;;;25.49;32.59
44751;BME280;30477;48.224;11.470;2023-05-29T09:14:44;96140.13;;;26.42;31.92
44751;BME280;30477;48.224;11.470;2023-05-29T09:17:10;96138.09;;;26.78;30.66
44751;BME280;30477;48.224;11.470;2023-05-29T09:19:37;96140.16;;;26.59;32.00
44751;BME280;30477;48.224;11.470;2023-05-29T09:22:12;96129.06;;;26.62;33.47
44751;BME280;30477;48.224;11.470;2023-05-29T09:24:42;96128.84;;;27.76;32.24
44751;BME280;30477;48.224;11.470;2023-05-29T09:27:10;96134.31;;;26.91;30.38
44751;BME280;30477;48.224;11.470;2023-05-29T09:29:40;96138.53;;;26.01;32.46
44751;BME280;30477;48.224;11.470;2023-05-29T09:32:15;96138.63;;;26.06;32.23
44751;BME280;30477;48.224;11.470;2023-05-29T09:34:42;96137.63;;;26.36;32.69
44751;BME280;30477;48.224;11.470;2023-05-29T09:37:08;96134.72;;;26.83;30.97
44751;BME280;30477;48.224;11.470;2023-05-29T09:39:48;96134.56;;;26.15;31.51
44751;BME280;30477;48.224;11.470;2023-05-29T09:42:14;96140.44;;;26.17;31.05
44751;BME280;30477;48.224;11.470;2023-05-29T09:44:45;96141.97;;;26.42;31.38
44751;BME280;30477;48.224;11.470;2023-05-29T09:47:18;96145.13;;;25.86;30.88
44751;BME280;30477;48.224;11.470;2023-05-29T09:49:44;96138.81;;;25.64;31.59
44751;BME280;30477;48.224;11.470;2023-05-29T09:52:12;96141.97;;;25.61;30.42
44751;BME280;30477;48.224;11.470;2023-05-29T09:54:44;96139.44;;;25.19;32.12
44751;BME280;30477;48.224;11.470;2023-05-29T09:57:13;96137.47;;;25.14;31.80
44751;BME280;30477;48.224;11.470;2023-05-29T09:59:45;96138.03;;;24.81;32.49
44751;BME280;30477;48.224;11.470;2023-05-29T10:02:14;96139.41;;;25.07;32.63
44751;BME280;30477;48.224;11.470;2023-05-29T10:04:40;96141.78;;;24.73;32.27
44751;BME280;30477;48.224;11.470;2023-05-29T10:07:15;96137.16;;;23.96;31.79
44751;BME280;30477;48.224;11.470;2023-05-29T10:09:44;96133.72;;;23.77;31.41
44751;BME280;30477;48.224;11.470;2023-05-29T10:12:11;96139.56;;;23.98;31.68
44751;BME280;30477;48.224;11.470;2023-05-29T10:14:37;96136.63;;;24.06;32.53
44751;BME280;30477;48.224;11.470;2023-05-29T10:17:07;96132.00;;;24.01;33.95
44751;BME280;30477;48.224;11.470;2023-05-29T10:19:36;96139.94;;;24.62;32.85
44751;BME280;30477;48.224;11.470;2023-05-29T10:22:02;96138.38;;;24.12;32.23
44751;BME280;30477;48.224;11.470;2023-05-29T10:24:29;96125.47;;;23.85;32.55
44751;BME280;30477;48.224;11.470;2023-05-29T10:26:57;96122.63;;;23.87;31.81
44751;BME280;30477;48.224;11.470;2023-05-29T10:29:43;96128.97;;;23.98;33.13
44751;BME280;30477;48.224;11.470;2023-05-29T10:32:22;96128.84;;;23.56;33.79
44751;BME280;30477;48.224;11.470;2023-05-29T10:40:10;96131.59;;;23.86;33.40
44751;BME280;30477;48.224;11.470;2023-05-29T10:42:49;96126.06;;;23.69;33.23
44751;BME280;30477;48.224;11.470;2023-05-29T10:47:56;96124.38;;;23.38;32.95
44751;BME280;30477;48.224;11.470;2023-05-29T10:52:46;96136.56;;;22.88;34.65
44751;BME280;30477;48.224;11.470;2023-05-29T10:55:16;96125.44;;;23.12;34.55
44751;BME280;30477;48.224;11.470;2023-05-29T10:57:46;96126.81;;;23.39;34.56
44751;BME280;30477;48.224;11.470;2023-05-29T11:00:15;96116.25;;;23.76;34.76
44751;BME280;30477;48.224;11.470;2023-05-29T11:02:44;96125.78;;;23.59;33.83
44751;BME280;30477;48.224;11.470;2023-05-29T11:05:23;96123.56;;;23.56;34.88
44751;BME280;30477;48.224;11.470;2023-05-29T11:07:57;96126.03;;;23.32;35.57
44751;BME280;30477;48.224;11.470;2023-05-29T11:10:55;96121.41;;;23.09;34.58
44751;BME280;30477;48.224;11.470;2023-05-29T11:13:32;96122.50;;;23.20;34.58
44751;BME280;30477;48.224;11.470;2023-05-29T11:18:45;96123.91;;;22.97;33.54
44751;BME280;30477;48.224;11.470;2023-05-29T11:24:04;96123.84;;;23.47;34.52
44751;BME280;30477;48.224;11.470;2023-05-29T11:26:33;96127.38;;;23.60;34.59
44751;BME280;30477;48.224;11.470;2023-05-29T11:29:01;96133.97;;;23.32;33.87
44751;BME280;30477;48.224;11.470;2023-05-29T11:31:31;96129.75;;;22.99;33.26
44751;BME280;30477;48.224;11.470;2023-05-29T11:34:00;96131.56;;;23.05;32.69
44751;BME280;30477;48.224;11.470;2023-05-29T11:36:30;96130.19;;;23.03;32.02
44751;BME280;30477;48.224;11.470;2023-05-29T11:38:56;96135.09;;;22.67;32.87
44751;BME280;30477;48.224;11.470;2023-05-29T11:41:22;96138.09;;;22.46;32.83
44751;BME280;30477;48.224;11.470;2023-05-29T11:44:00;96126.25;;;22.55;33.44
44751;BME280;30477;48.224;11.470;2023-05-29T11:46:27;96122.41;;;22.83;34.43
44751;BME280;30477;48.224;11.470;2023-05-29T11:49:09;96129.41;;;22.70;33.87
44751;BME280;30477;48.224;11.470;2023-05-29T11:51:35;96129.94;;;22.54;33.23
44751;BME280;30477;48.224;11.470;2023-05-29T11:54:00;96121.06;;;22.74;34.10
44751;BME280;30477;48.224;11.470;2023-05-29T11:56:26;96119.81;;;23.01;35.23
44751;BME280;30477;48.224;11.470;2023-05-29T11:58:53;96120.50;;;22.65;33.22
44751;BME280;30477;48.224;11.470;2023-05-29T12:01:25;96117.06;;;22.64;35.12
44751;BME280;30477;48.224;11.470;2023-05-29T12:03:52;96113.25;;;22.60;35.71
44751;BME280;30477;48.224;11.470;2023-05-29T12:06:33;96122.44;;;22.76;36.11
44751;BME280;30477;48.224;11.470;2023-05-29T12:09:00;96110.44;;;23.05;35.33
44751;BME280;30477;48.224;11.470;2023-05-29T12:11:26;96112.19;;;23.18;36.23
44751;BME280;30477;48.224;11.470;2023-05-29T12:13:56;96115.38;;;23.02;36.50
44751;BME280;30477;48.224;11.470;2023-05-29T12:16:21;96113.41;;;22.65;36.84
44751;BME280;30477;48.224;11.470;2023-05-29T12:18:47;96116.25;;;22.39;35.67
44751;BME280;30477;48.224;11.470;2023-05-29T12:21:13;96115.06;;;22.35;34.36
44751;BME280;30477;48.224;11.470;2023-05-29T12:23:38;96114.63;;;22.38;33.78
44751;BME280;30477;48.224;11.470;2023-05-29T12:26:05;96110.41;;;22.62;35.49
44751;BME280;30477;48.224;11.470;2023-05-29T12:28:30;96113.97;;;22.74;36.82
44751;BME280;30477;48.224;11.470;2023-05-29T12:30:59;96118.53;;;22.60;35.26
44751;BME280;30477;48.224;11.470;2023-05-29T12:33:29;96107.38;;;22.58;35.55
44751;BME280;30477;48.224;11.470;2023-05-29T12:36:07;96108.22;;;22.52;35.51
44751;BME280;30477;48.224;11.470;2023-05-29T12:38:46;96108.69;;;22.49;37.29
44751;BME280;30477;48.224;11.470;2023-05-29T12:41:29;96109.38;;;22.31;36.97
44751;BME280;30477;48.224;11.470;2023-05-29T12:43:57;96115.84;;;22.35;37.85
44751;BME280;30477;48.224;11.470;2023-05-29T12:46:24;96104.47;;;22.41;37.55
44751;BME280;30477;48.224;11.470;2023-05-29T12:48:55;96112.44;;;22.60;37.62
44751;BME280;30477;48.224;11.470;2023-05-29T12:51:25;96111.41;;;22.86;36.89
44751;BME280;30477;48.224;11.470;2023-05-29T12:53:52;96103.50;;;22.86;36.79
44751;BME280;30477;48.224;11.470;2023-05-29T12:56:24;96112.72;;;22.77;36.25
44751;BME280;30477;48.224;11.470;2023-05-29T12:58:51;96120.56;;;22.58;35.54
44751;BME280;30477;48.224;11.470;2023-05-29T13:01:17;96121.34;;;22.34;34.81
44751;BME280;30477;48.224;11.470;2023-05-29T13:03:45;96117.91;;;22.33;34.53
44751;BME280;30477;48.224;11.470;2023-05-29T13:06:11;96112.16;;;22.43;35.43
44751;BME280;30477;48.224;11.470;2023-05-29T13:08:37;96108.50;;;22.44;35.48
44751;BME280;30477;48.224;11.470;2023-05-29T13:11:03;96105.31;;;22.35;35.05
44751;BME280;30477;48.224;11.470;2023-05-29T13:13:28;96109.00;;;22.27;35.71
44751;BME280;30477;48.224;11.470;2023-05-29T13:15:53;96110.66;;;22.15;35.73